Fort Collins High School, Colorado
Current Conditions -  °F | °C
As of 1:55 PM on Thursday 23 Oct 2014 (Local Time) from KFNL Reporting Station
Clear Clear  
Wind Chill: 72°   Ceiling: Unl
Heat Index: 72°   Visibility: 10mi
Dew Point: 36°   Wind: 7mph
Humidity: 27%   Direction: 170°S
Pressure: 30.1"   Gusts: NA
Location:  40.54033°N, 105.0358°W
Report Text: KFNL 231955Z AUTO 17006KT 10SM CLR 22/02 A3010 RMK AO1
Loading
Personal Weather Stations






























Interactive Weather Map
Tropical Storm Tracking
New forecast layout! Learn more

10-Day Weather Forecast

Advertisements
Track Severe Weather on mobile